Rouyn Noranda Airport
CYUY : now visible

Airfield :











YOU CAN JOIN US ON...

 
LOGIN :

Register | Disclaimer

   EN    FR    IT 

 









Legend :    VFR   Marginal VFR   IFR   Intensive IFR   Very Intensive IFR
Visi :
Ceiling :
>= 8 km
>= 3000ft
5 to 8 km
1000 to 3000 ft
1500m to 5 km
500 to 1000 ft
800 to 1500m
200 to 500 ft
< 800m
< 200 ft
Symbols :   Thunderstorms  Fog  Heavy snow  Heavy precipitations  Wind > 20 kt






- Airport Elevation : 988 ft
- IATA code : YUY


CYUY - Rouyn Noranda

CURRENT METAR :
  • 110327Z 33004KT 15SM BKN034 BKN062 OVC140 05/03 A2993 RMK SC5SC2AC1 SLP149

EXPIRED METARs :
  • 110300Z 32003KT 310V050 15SM -RA BKN036 OVC062 05/03 A2994 RMK SC7SC1 SLP151
  • 110200Z 33005KT 270V010 15SM -RA BKN040 06/03 A2994 RMK SC7 SLP153
  • 110148Z CCA VRB02KT 15SM -RA BKN040 06/03 A2995 RMK SC7 SLP155
  • 110100Z 32005KT 280V340 15SM FEW040 BKN057 BKN100 BKN140 BKN180 07/02 A2993 RMK CU1SC5AC1AC1AC1 CU TR AC TR SLP149

TAF TAF CYUY
Valid from the 11 at 00:00 until the 11 at 12:00 UTC


102338Z 1100/1112 28010KT P6SM FEW040 BKN070 BKN100
TEMPO 1100/1103 5SM -SHRA BR BKN020 OVC040
BECMG 1100/1102 36010KT
FM110500 36010KT P6SM FEW015
TEMPO 1107/1109 OVC012
FM110900 36010KT P6SM OVC012 RMK NXT FCST BY 110600Z
CZUL FIR / North America



MET'MAP, your aeronautical weather chart ! - Copyright ORBIFLY December 2007 - Disclaimer

ORBIFLY MET'MAP TEAM :

Programming & Development : Alexandra Zaïnal
Concept & original design : Baudouin d'Aumeries
Assistance for programming : Marc-Olivier Méhu
Technical & hardware support : Manuel Goepfert

Contact : metmap@orbifly.com




SOURCES & CREDITS :

   NOAA       Earth
Advisory